createdAt,value
2019-05-05T00:01:14.787Z,100410.16
2019-05-05T00:03:48.224Z,100404.91
2019-05-05T00:06:19.885Z,100402.22
2019-05-05T00:08:51.836Z,100412.55
2019-05-05T00:11:25.012Z,100415.12
2019-05-05T00:13:59.445Z,100413.34
2019-05-05T00:16:34.969Z,100416.34
2019-05-05T00:19:06.750Z,100416.22
2019-05-05T00:21:39.901Z,100427.63
2019-05-05T00:24:11.249Z,100436.27
2019-05-05T00:26:42.766Z,100433.48
2019-05-05T00:29:14.959Z,100434.20
2019-05-05T00:31:48.850Z,100434.48
2019-05-05T00:34:20.471Z,100444.21
2019-05-05T00:36:52.040Z,100445.70
2019-05-05T00:39:25.531Z,100451.87
2019-05-05T00:41:57.103Z,100453.44
2019-05-05T00:44:28.781Z,100455.23
2019-05-05T00:47:01.938Z,100454.12
2019-05-05T00:49:45.608Z,100459.84
2019-05-05T00:52:08.607Z,100451.63
2019-05-05T00:54:40.062Z,100452.70
2019-05-05T00:57:11.976Z,100461.72
2019-05-05T00:59:45.279Z,100458.72
2019-05-05T01:02:19.581Z,100454.42
2019-05-05T01:04:54.971Z,100460.32
2019-05-05T01:07:26.025Z,100462.08
2019-05-05T01:09:58.251Z,100469.80
2019-05-05T01:12:30.665Z,100468.38
2019-05-05T01:15:04.483Z,100467.83
2019-05-05T01:17:36.635Z,100471.17
2019-05-05T01:20:09.898Z,100466.94
2019-05-05T01:22:40.944Z,100463.20
2019-05-05T01:25:14.903Z,100467.75
2019-05-05T01:27:48.181Z,100469.83
2019-05-05T01:30:24.488Z,100473.61
2019-05-05T01:32:57.341Z,100468.72
2019-05-05T01:35:29.834Z,100475.94
2019-05-05T01:38:04.787Z,100477.92
2019-05-05T01:40:37.724Z,100482.90
2019-05-05T01:43:10.813Z,100483.39
2019-05-05T01:45:42.752Z,100486.09
2019-05-05T01:48:14.385Z,100477.07
2019-05-05T01:50:47.623Z,100483.21
2019-05-05T01:53:19.704Z,100491.68
2019-05-05T01:55:51.898Z,100504.75
2019-05-05T01:58:25.296Z,100512.52
2019-05-05T02:00:57.484Z,100521.14
2019-05-05T02:03:29.459Z,100523.69
2019-05-05T02:06:01.783Z,100532.88
2019-05-05T02:08:34.985Z,100538.75
2019-05-05T02:11:08.784Z,100538.03
2019-05-05T02:13:40.100Z,100539.82
2019-05-05T02:16:12.247Z,100540.79
2019-05-05T02:18:45.087Z,100546.96
2019-05-05T02:21:17.337Z,100541.23
2019-05-05T02:23:49.337Z,100545.01
2019-05-05T02:26:20.457Z,100559.13
2019-05-05T02:28:54.282Z,100561.88
2019-05-05T02:31:28.709Z,100568.52
2019-05-05T02:34:00.542Z,100571.20
2019-05-05T02:36:32.262Z,100571.42
2019-05-05T02:39:05.392Z,100577.05
2019-05-05T02:41:38.106Z,100575.36
2019-05-05T02:44:10.721Z,100576.86
2019-05-05T02:46:45.980Z,100578.70
2019-05-05T02:49:19.218Z,100580.55
2019-05-05T02:51:55.154Z,100590.26
2019-05-05T02:54:26.525Z,100595.61
2019-05-05T02:56:59.660Z,100593.77
2019-05-05T02:59:35.261Z,100597.36
2019-05-05T03:02:09.482Z,100600.59
2019-05-05T03:04:44.327Z,100606.41
2019-05-05T03:07:18.841Z,100601.48
2019-05-05T03:09:54.424Z,100604.89
2019-05-05T03:12:27.695Z,100610.43
2019-05-05T03:15:01.303Z,100605.45
2019-05-05T03:17:34.236Z,100610.37
2019-05-05T03:20:08.702Z,100615.09
2019-05-05T03:22:40.585Z,100621.39
2019-05-05T03:25:13.702Z,100627.33
2019-05-05T03:27:45.289Z,100630.39
2019-05-05T03:30:18.664Z,100630.33
2019-05-05T03:32:50.783Z,100636.04
2019-05-05T03:35:24.200Z,100637.63
2019-05-05T03:37:56.180Z,100636.99
2019-05-05T03:40:29.883Z,100640.07
2019-05-05T03:43:04.200Z,100637.42
2019-05-05T03:45:37.784Z,100645.13
2019-05-05T03:48:09.422Z,100654.13
2019-05-05T03:50:42.242Z,100658.98
2019-05-05T03:53:14.187Z,100667.43
2019-05-05T03:55:46.835Z,100668.20
2019-05-05T03:58:19.262Z,100672.81
2019-05-05T04:00:51.760Z,100667.98
2019-05-05T04:03:24.465Z,100679.85
2019-05-05T04:05:58.421Z,100691.36
2019-05-05T04:08:30.173Z,100693.95
2019-05-05T04:11:03.974Z,100701.59
2019-05-05T04:13:36.177Z,100709.70
2019-05-05T04:16:09.999Z,100703.45
2019-05-05T04:18:43.699Z,100704.67
2019-05-05T04:21:15.613Z,100708.45
2019-05-05T04:23:46.719Z,100705.37
2019-05-05T04:26:19.103Z,100706.59
2019-05-05T04:28:50.620Z,100709.48
2019-05-05T04:31:24.155Z,100708.35
2019-05-05T04:33:55.300Z,100709.32
2019-05-05T04:36:26.574Z,100709.61
2019-05-05T04:38:58.840Z,100706.19
2019-05-05T04:41:30.689Z,100718.62
2019-05-05T04:44:04.008Z,100717.98
2019-05-05T04:46:36.022Z,100726.09
2019-05-05T04:49:08.725Z,100724.41
2019-05-05T04:51:47.739Z,100728.82
2019-05-05T04:54:18.364Z,100728.27
2019-05-05T04:56:50.770Z,100719.02
2019-05-05T04:59:23.530Z,100728.92
2019-05-05T05:01:56.741Z,100721.84
2019-05-05T05:04:29.662Z,100721.67
2019-05-05T05:07:04.629Z,100724.83
2019-05-05T05:09:36.458Z,100730.20
2019-05-05T05:12:07.549Z,100732.38
2019-05-05T05:14:41.522Z,100730.16
2019-05-05T05:17:14.231Z,100741.01
2019-05-05T05:19:47.139Z,100744.39
2019-05-05T05:22:18.577Z,100742.92
2019-05-05T05:24:50.605Z,100747.10
2019-05-05T05:27:24.294Z,100750.31
2019-05-05T05:29:56.474Z,100750.32
2019-05-05T05:32:28.729Z,100752.14
2019-05-05T05:35:00.537Z,100758.38
2019-05-05T05:37:34.157Z,100764.78
2019-05-05T05:40:07.689Z,100756.04
2019-05-05T05:42:38.710Z,100761.92
2019-05-05T05:45:14.454Z,100765.45
2019-05-05T05:47:47.512Z,100761.00
2019-05-05T05:50:21.219Z,100764.97
2019-05-05T05:52:54.148Z,100767.55
2019-05-05T05:55:26.238Z,100770.00
2019-05-05T05:57:58.979Z,100774.75
2019-05-05T06:00:30.715Z,100776.30
2019-05-05T06:03:03.969Z,100784.32
2019-05-05T06:05:36.297Z,100792.59
2019-05-05T06:08:08.304Z,100791.95
2019-05-05T06:10:39.538Z,100798.39
2019-05-05T06:13:11.727Z,100796.55
2019-05-05T06:15:44.462Z,100799.06
2019-05-05T06:18:16.287Z,100802.69
2019-05-05T06:20:48.572Z,100809.95
2019-05-05T06:23:21.263Z,100810.51
2019-05-05T06:25:54.846Z,100806.17
2019-05-05T06:28:26.547Z,100806.13
2019-05-05T06:30:58.086Z,100806.34
2019-05-05T06:33:29.451Z,100813.33
2019-05-05T06:36:03.617Z,100818.09
2019-05-05T06:38:34.903Z,100814.83
2019-05-05T06:41:07.752Z,100811.27
2019-05-05T06:43:38.745Z,100810.27
2019-05-05T06:46:11.696Z,100814.83
2019-05-05T06:48:44.913Z,100823.81
2019-05-05T06:51:16.657Z,100821.42
2019-05-05T06:53:47.969Z,100823.80
2019-05-05T06:56:19.084Z,100826.06
2019-05-05T06:58:50.433Z,100824.47
2019-05-05T07:01:22.298Z,100825.84
2019-05-05T07:03:55.736Z,100824.77
2019-05-05T07:06:27.638Z,100826.59
2019-05-05T07:08:59.217Z,100826.67
2019-05-05T07:11:31.055Z,100828.08
2019-05-05T07:14:03.734Z,100834.83
2019-05-05T07:16:36.535Z,100839.11
2019-05-05T07:19:08.061Z,100840.59
2019-05-05T07:21:40.478Z,100841.30
2019-05-05T07:24:14.369Z,100846.87
2019-05-05T07:26:45.604Z,100842.85
2019-05-05T07:29:18.309Z,100849.88
2019-05-05T07:31:49.461Z,100862.53
2019-05-05T07:34:21.422Z,100861.74
2019-05-05T07:36:54.821Z,100864.00
2019-05-05T07:39:27.303Z,100857.37
2019-05-05T07:41:59.408Z,100852.22
2019-05-05T07:44:31.002Z,100850.67
2019-05-05T07:47:03.665Z,100858.56
2019-05-05T07:49:35.556Z,100858.48
2019-05-05T07:52:07.662Z,100857.47
2019-05-05T07:54:39.542Z,100865.95
2019-05-05T07:57:11.137Z,100869.68
2019-05-05T07:59:45.012Z,100876.92
2019-05-05T08:02:16.648Z,100874.23
2019-05-05T08:04:48.256Z,100869.56
2019-05-05T08:07:24.009Z,100857.19
2019-05-05T08:09:54.956Z,100860.67
2019-05-05T08:12:27.598Z,100860.74
2019-05-05T08:14:59.641Z,100861.00
2019-05-05T08:17:39.689Z,100872.81
2019-05-05T08:20:19.440Z,100869.75
2019-05-05T08:22:53.661Z,100871.76
2019-05-05T08:25:36.263Z,100873.27
2019-05-05T08:28:04.267Z,100869.35
2019-05-05T08:30:39.829Z,100870.64
2019-05-05T08:33:13.932Z,100865.79
2019-05-05T08:35:45.032Z,100862.08
2019-05-05T08:38:18.313Z,100867.77
2019-05-05T08:40:51.053Z,100873.90
2019-05-05T08:43:24.139Z,100864.53
2019-05-05T08:46:04.909Z,100861.52
2019-05-05T08:48:38.710Z,100867.28
2019-05-05T08:51:11.617Z,100868.09
2019-05-05T08:53:47.875Z,100871.86
2019-05-05T08:56:15.597Z,100867.28
2019-05-05T08:58:49.927Z,100874.27
2019-05-05T09:01:23.823Z,100875.83
2019-05-05T09:03:56.858Z,100872.33
2019-05-05T09:06:28.828Z,100870.19
2019-05-05T09:09:04.419Z,100876.72
2019-05-05T09:11:36.370Z,100871.56
2019-05-05T09:14:09.334Z,100871.86
2019-05-05T09:16:41.051Z,100868.20
2019-05-05T09:19:14.659Z,100873.20
2019-05-05T09:21:46.398Z,100873.07
2019-05-05T09:24:20.375Z,100876.86
2019-05-05T09:26:54.711Z,100868.16
2019-05-05T09:29:27.711Z,100870.38
2019-05-05T09:31:58.958Z,100872.23
2019-05-05T09:34:30.330Z,100884.52
2019-05-05T09:37:04.731Z,100893.97
2019-05-05T09:39:37.980Z,100895.03
2019-05-05T09:42:10.017Z,100892.52
2019-05-05T09:44:43.789Z,100892.25
2019-05-05T09:47:15.008Z,100888.99
2019-05-05T09:49:47.099Z,100885.47
2019-05-05T09:52:18.434Z,100891.34
2019-05-05T09:54:51.211Z,100890.36
2019-05-05T09:57:23.887Z,100883.84
2019-05-05T09:59:58.323Z,100889.62
2019-05-05T10:02:29.935Z,100887.44
2019-05-05T10:05:03.971Z,100894.02
2019-05-05T10:07:35.732Z,100890.61
2019-05-05T10:10:08.513Z,100885.73
2019-05-05T10:12:40.090Z,100891.72
2019-05-05T10:15:13.934Z,100885.48
2019-05-05T10:17:45.884Z,100882.66
2019-05-05T10:20:17.308Z,100882.92
2019-05-05T10:22:48.708Z,100879.17
2019-05-05T10:25:23.889Z,100887.02
2019-05-05T10:27:58.208Z,100892.14
2019-05-05T10:30:30.448Z,100881.30
2019-05-05T10:33:03.796Z,100879.41
2019-05-05T10:35:36.107Z,100884.22
2019-05-05T10:38:08.212Z,100883.42
2019-05-05T10:40:39.404Z,100880.38
2019-05-05T10:43:12.046Z,100875.27
2019-05-05T10:45:51.807Z,100880.64
2019-05-05T10:48:29.202Z,100881.23
2019-05-05T10:51:04.230Z,100880.64
2019-05-05T10:53:36.321Z,100872.75
2019-05-05T10:56:09.073Z,100874.73
2019-05-05T10:58:40.941Z,100876.61
2019-05-05T11:01:14.561Z,100873.22
2019-05-05T11:03:46.115Z,100869.39
2019-05-05T11:06:18.100Z,100871.34
2019-05-05T11:08:50.685Z,100877.47
2019-05-05T11:11:27.276Z,100872.98
2019-05-05T11:13:59.815Z,100870.70
2019-05-05T11:16:31.628Z,100880.69
2019-05-05T11:19:04.299Z,100884.81
2019-05-05T11:21:36.195Z,100884.16
2019-05-05T11:24:08.456Z,100880.99
2019-05-05T11:26:41.712Z,100877.67
2019-05-05T11:29:14.394Z,100877.55
2019-05-05T11:31:46.912Z,100874.87
2019-05-05T11:34:19.849Z,100880.67
2019-05-05T11:36:54.564Z,100872.00
2019-05-05T11:39:26.217Z,100872.23
2019-05-05T11:41:58.948Z,100872.46
2019-05-05T11:44:30.800Z,100879.55
2019-05-05T11:47:04.476Z,100875.22
2019-05-05T11:49:36.146Z,100874.70
2019-05-05T11:52:08.927Z,100879.17
2019-05-05T11:54:43.530Z,100883.47
2019-05-05T11:57:17.201Z,100876.10
2019-05-05T11:59:50.328Z,100873.97
2019-05-05T12:02:24.386Z,100883.10
2019-05-05T12:04:59.441Z,100886.83
2019-05-05T12:07:30.825Z,100875.08
2019-05-05T12:10:02.624Z,100881.00
2019-05-05T12:12:35.120Z,100878.42
2019-05-05T12:15:08.519Z,100883.33
2019-05-05T12:17:40.017Z,100878.28
2019-05-05T12:20:14.785Z,100883.96
2019-05-05T12:22:46.407Z,100875.41
2019-05-05T12:25:27.769Z,100880.16
2019-05-05T12:27:54.059Z,100869.45
2019-05-05T12:30:25.853Z,100875.23
2019-05-05T12:32:57.234Z,100877.53
2019-05-05T12:35:28.614Z,100871.63
2019-05-05T12:38:01.682Z,100879.13
2019-05-05T12:40:33.969Z,100875.50
2019-05-05T12:43:05.272Z,100873.16
2019-05-05T12:45:43.924Z,100876.49
2019-05-05T12:48:24.202Z,100871.03
2019-05-05T12:50:58.986Z,100873.50
2019-05-05T12:53:33.258Z,100864.41
2019-05-05T12:56:15.178Z,100868.99
2019-05-05T12:58:55.195Z,100863.52
2019-05-05T13:01:49.260Z,100866.50
2019-05-05T13:04:30.221Z,100869.21
2019-05-05T13:07:10.828Z,100863.48
2019-05-05T13:09:44.955Z,100867.28
2019-05-05T13:12:17.035Z,100869.38
2019-05-05T13:14:49.791Z,100869.11
2019-05-05T13:17:21.072Z,100869.43
2019-05-05T13:19:54.192Z,100865.62
2019-05-05T13:22:27.204Z,100862.62
2019-05-05T13:25:00.244Z,100857.16
2019-05-05T13:27:35.049Z,100853.60
2019-05-05T13:30:08.624Z,100856.90
2019-05-05T13:32:40.974Z,100854.30
2019-05-05T13:35:14.382Z,100858.75
2019-05-05T13:37:46.845Z,100852.01
2019-05-05T13:40:18.949Z,100860.53
2019-05-05T13:42:50.277Z,100867.14
2019-05-05T13:45:24.721Z,100863.50
2019-05-05T13:47:57.621Z,100860.27
2019-05-05T13:50:31.260Z,100859.38
2019-05-05T13:53:23.675Z,100861.16
2019-05-05T13:56:11.865Z,100859.53
2019-05-05T13:58:38.193Z,100861.47
2019-05-05T14:01:10.850Z,100859.64
2019-05-05T14:03:44.592Z,100855.48
2019-05-05T14:06:16.415Z,100858.20
2019-05-05T14:08:49.355Z,100857.11
2019-05-05T14:11:22.211Z,100854.78
2019-05-05T14:13:53.386Z,100857.78
2019-05-05T14:16:24.421Z,100855.51
2019-05-05T14:18:56.911Z,100857.05
2019-05-05T14:21:30.130Z,100856.63
2019-05-05T14:24:03.863Z,100840.88
2019-05-05T14:26:35.756Z,100842.89
2019-05-05T14:29:09.111Z,100839.56
2019-05-05T14:31:44.561Z,100843.25
2019-05-05T14:34:18.149Z,100843.01
2019-05-05T14:36:53.488Z,100849.30
2019-05-05T14:39:26.367Z,100846.69
2019-05-05T14:41:59.720Z,100853.67
2019-05-05T14:44:31.422Z,100850.08
2019-05-05T14:47:04.551Z,100849.77
2019-05-05T14:49:36.332Z,100854.73
2019-05-05T14:52:07.961Z,100856.61
2019-05-05T14:54:43.372Z,100856.12
2019-05-05T14:57:20.837Z,100852.36
2019-05-05T14:59:54.014Z,100856.03
2019-05-05T15:02:27.725Z,100854.19
2019-05-05T15:05:01.003Z,100856.11
2019-05-05T15:07:40.805Z,100851.30
2019-05-05T15:10:14.478Z,100850.61
2019-05-05T15:12:50.326Z,100846.41
2019-05-05T15:15:23.571Z,100844.58
2019-05-05T15:17:55.307Z,100843.69
2019-05-05T15:20:28.824Z,100845.99
2019-05-05T15:23:00.456Z,100838.77
2019-05-05T15:25:31.512Z,100840.02
2019-05-05T15:28:04.767Z,100838.62
2019-05-05T15:30:39.478Z,100851.39
2019-05-05T15:33:13.775Z,100844.11
2019-05-05T15:35:46.655Z,100852.69
2019-05-05T15:38:18.657Z,100851.47
2019-05-05T15:40:50.088Z,100852.41
2019-05-05T15:43:24.281Z,100850.31
2019-05-05T15:45:57.400Z,100843.64
2019-05-05T15:48:28.612Z,100848.25
2019-05-05T15:51:04.231Z,100851.11
2019-05-05T15:53:36.912Z,100856.84
2019-05-05T15:56:10.562Z,100852.50
2019-05-05T15:58:43.525Z,100848.45
2019-05-05T16:01:15.817Z,100851.11
2019-05-05T16:03:47.487Z,100852.22
2019-05-05T16:06:21.173Z,100855.42
2019-05-05T16:08:56.336Z,100856.73
2019-05-05T16:11:27.594Z,100863.47
2019-05-05T16:14:01.198Z,100859.86
2019-05-05T16:16:36.731Z,100864.40
2019-05-05T16:19:10.677Z,100863.42
2019-05-05T16:21:45.482Z,100859.18
2019-05-05T16:24:19.660Z,100859.51
2019-05-05T16:26:50.830Z,100871.16
2019-05-05T16:29:23.747Z,100868.04
2019-05-05T16:31:56.860Z,100863.51
2019-05-05T16:34:30.574Z,100866.00
2019-05-05T16:37:03.901Z,100855.27
2019-05-05T16:39:35.327Z,100856.86
2019-05-05T16:42:08.364Z,100852.36
2019-05-05T16:44:40.102Z,100850.98
2019-05-05T16:47:13.627Z,100855.93
2019-05-05T16:49:45.931Z,100851.22
2019-05-05T16:52:20.771Z,100853.86
2019-05-05T16:54:55.858Z,100856.56
2019-05-05T16:57:33.989Z,100856.38
2019-05-05T17:00:00.900Z,100859.30
2019-05-05T17:02:35.942Z,100852.59
2019-05-05T17:05:08.954Z,100846.53
2019-05-05T17:07:40.643Z,100849.84
2019-05-05T17:10:13.810Z,100843.78
2019-05-05T17:13:04.867Z,100852.27
2019-05-05T18:14:21.080Z,100891.25
2019-05-05T18:16:54.379Z,100894.37
2019-05-05T18:19:26.019Z,100895.63
2019-05-05T18:21:57.817Z,100904.02
2019-05-05T18:24:30.631Z,100897.83
2019-05-05T18:27:04.421Z,100898.78
2019-05-05T18:29:35.507Z,100903.56
2019-05-05T18:32:07.381Z,100913.34
2019-05-05T18:34:39.152Z,100913.64
2019-05-05T18:37:11.455Z,100909.82
2019-05-05T18:39:44.008Z,100919.30
2019-05-05T18:42:17.039Z,100922.76
2019-05-05T18:44:50.181Z,100915.91
2019-05-05T18:47:26.403Z,100923.63
2019-05-05T18:50:03.976Z,100923.11
2019-05-05T18:52:35.201Z,100921.76
2019-05-05T18:55:07.700Z,100927.02
2019-05-05T18:57:39.333Z,100925.46
2019-05-05T19:00:13.923Z,100927.22
2019-05-05T19:02:46.890Z,100936.59
2019-05-05T19:05:20.086Z,100940.61
2019-05-05T19:07:56.150Z,100942.13
2019-05-05T19:10:29.106Z,100948.67
2019-05-05T19:13:01.078Z,100949.41
2019-05-05T19:15:34.919Z,100950.19
2019-05-05T19:18:06.793Z,100951.82
2019-05-05T19:20:41.415Z,100949.25
2019-05-05T19:23:14.736Z,100947.58
2019-05-05T19:25:48.024Z,100947.85
2019-05-05T19:28:20.881Z,100951.33
2019-05-05T19:30:54.937Z,100949.38
2019-05-05T19:33:27.469Z,100949.38
2019-05-05T19:36:00.870Z,100954.98
2019-05-05T19:38:34.515Z,100953.78
2019-05-05T19:41:07.404Z,100955.09
2019-05-05T19:43:40.847Z,100956.00
2019-05-05T19:46:15.934Z,100956.00
2019-05-05T19:48:47.903Z,100955.91
2019-05-05T19:51:19.389Z,100956.05
2019-05-05T19:53:51.135Z,100951.30
2019-05-05T19:56:35.303Z,100959.37
2019-05-05T19:59:20.567Z,100967.44
2019-05-05T20:01:54.019Z,100961.28
2019-05-05T20:04:25.271Z,100962.98
2019-05-05T20:06:56.337Z,100960.27
2019-05-05T20:09:27.561Z,100960.55
2019-05-05T20:11:58.704Z,100960.55
2019-05-05T20:14:29.769Z,100958.16
2019-05-05T20:17:04.345Z,100960.95
2019-05-05T20:19:36.632Z,100957.88
2019-05-05T20:22:08.088Z,100960.67
2019-05-05T20:24:40.082Z,100964.44
2019-05-05T20:27:13.981Z,100963.25
2019-05-05T20:29:48.062Z,100960.66
2019-05-05T20:32:36.057Z,100954.06
2019-05-05T20:35:07.618Z,100956.67
2019-05-05T20:38:21.207Z,100960.55
2019-05-05T20:40:58.885Z,100957.95
2019-05-05T20:43:30.554Z,100957.22
2019-05-05T20:46:04.464Z,100960.88
2019-05-05T20:48:40.815Z,100966.25
2019-05-05T20:51:10.592Z,100959.67
2019-05-05T20:53:44.509Z,100961.03
2019-05-05T20:56:15.613Z,100960.13
2019-05-05T20:58:47.821Z,100957.05
2019-05-05T21:01:20.008Z,100956.23
2019-05-05T21:03:53.452Z,100959.51
2019-05-05T21:06:25.970Z,100963.60
2019-05-05T21:08:57.329Z,100962.59
2019-05-05T21:11:28.774Z,100957.27
2019-05-05T21:14:00.318Z,100959.24
2019-05-05T21:16:34.195Z,100956.47
2019-05-05T21:19:05.010Z,100963.00
2019-05-05T21:21:37.940Z,100960.13
2019-05-05T21:24:09.461Z,100963.92
2019-05-05T21:26:42.509Z,100962.47
2019-05-05T21:29:16.213Z,100962.69
2019-05-05T21:31:52.061Z,100967.02
2019-05-05T21:34:24.892Z,100964.08
2019-05-05T21:36:56.420Z,100963.82
2019-05-05T21:39:27.864Z,100965.42
2019-05-05T21:41:59.507Z,100961.23
2019-05-05T21:44:31.622Z,100963.46
2019-05-05T21:47:03.910Z,100963.64
2019-05-05T21:49:35.612Z,100973.25
2019-05-05T21:52:08.773Z,100966.30
2019-05-05T21:54:43.953Z,100970.39
2019-05-05T21:57:16.887Z,100968.47
2019-05-05T21:59:55.586Z,100971.53
2019-05-05T22:02:23.584Z,100971.51
2019-05-05T22:04:56.083Z,100969.44
2019-05-05T22:07:27.310Z,100973.41
2019-05-05T22:09:58.803Z,100975.76
2019-05-05T22:12:30.793Z,100974.33
2019-05-05T22:15:04.239Z,100973.20
2019-05-05T22:17:38.015Z,100972.71
2019-05-05T22:20:14.235Z,100971.25
2019-05-05T22:22:45.787Z,100976.28
2019-05-05T22:25:17.747Z,100975.31
2019-05-05T22:27:49.294Z,100970.25
2019-05-05T22:30:23.589Z,100972.75
2019-05-05T22:32:54.395Z,100972.27
2019-05-05T22:35:26.645Z,100973.30
2019-05-05T22:37:56.955Z,100974.61
2019-05-05T22:40:28.514Z,100978.80
2019-05-05T22:42:59.777Z,100971.24
2019-05-05T22:45:30.697Z,100968.97
2019-05-05T22:48:00.918Z,100968.81
2019-05-05T22:50:34.097Z,100974.51
2019-05-05T22:53:05.312Z,100969.35
2019-05-05T22:55:37.391Z,100972.19
2019-05-05T22:58:09.073Z,100974.87
2019-05-05T23:00:41.166Z,100967.29
2019-05-05T23:03:14.588Z,100966.31
2019-05-05T23:05:48.584Z,100967.73
2019-05-05T23:08:21.249Z,100970.07
2019-05-05T23:10:54.438Z,100971.42
2019-05-05T23:13:27.084Z,100976.50
2019-05-05T23:16:00.340Z,100977.15
2019-05-05T23:18:34.752Z,100972.37
2019-05-05T23:21:08.313Z,100973.81
2019-05-05T23:23:41.187Z,100976.30
2019-05-05T23:26:14.234Z,100972.04
2019-05-05T23:28:45.676Z,100975.56
2019-05-05T23:31:17.019Z,100966.84
2019-05-05T23:33:49.095Z,100971.99
2019-05-05T23:36:21.174Z,100966.45
2019-05-05T23:38:54.947Z,100970.06
2019-05-05T23:41:25.878Z,100969.47
2019-05-05T23:43:57.533Z,100971.69
2019-05-05T23:46:29.642Z,100970.55
2019-05-05T23:49:01.685Z,100970.69
2019-05-05T23:51:34.704Z,100970.30
2019-05-05T23:54:06.830Z,100964.50
2019-05-05T23:56:38.644Z,100972.51
2019-05-05T23:59:10.050Z,100974.22
